Weather observations for the past three days for
Santa Barbara, Santa Barbara Municipal Airport
Metric (Imperial)
Date Time (pdt) Wind (kph) Vis. (km) Weather Sky Cond. Temperature (ºC) Relative Humidity Wind Chill (°C) Heat Index (°C) Pressure Precipitation (cm)
Air Dwpt 6 hour altimeter (cm) sea level (mb) 1 hr 3 hr 6 hr
Max. Min.
02 09:53 SW 7 16.09 Fair CLR 22.2 11.7 52% 76.23 1016.0
02 08:53 Calm 16.09 Fair CLR 20.6 11.7 57% 76.2 1015.9
02 07:53 Calm 16.09 Fair CLR 17.8 10.6 63% 76.2 1015.9
02 06:53 Calm 16.09 Fair CLR 12.8 9.4 80% 76.17 1015.5
02 05:53 Calm 16.09 Fair CLR 12.2 8.9 80% 76.15 1015.3
02 04:53 Calm 16.09 Fair CLR 12.8 8.3 19.4 12.2 74% 76.12 1014.9
02 03:53 NW 6 16.09 Fair CLR 12.8 8.3 74% 76.12 1014.8
02 02:53 NW 6 16.09 Fair CLR 13.3 8.3 72% 76.12 1014.7
02 01:53 Calm 16.09 Fair CLR 15 8.9 67% 76.12 1014.7
02 00:53 NE 9 16.09 Fair CLR 16.7 10 65% 76.12 1014.8
01 23:53 Calm 16.09 Fair CLR 16.1 8.3 60% 76.1 1014.5
01 22:53 NE 9 16.09 Fair CLR 18.3 9.4 25 16.7 56% 76.1 1014.4
01 21:53 NE 11 16.09 Fair CLR 19.4 8.3 49% 76.05 1013.9
01 20:53 NE 19 16.09 Fair CLR 20.6 8.3 45% 76.02 1013.4
01 19:53 E 9 16.09 Fair CLR 22.2 10 46% 75.97 1012.9
01 18:53 W 13 16.09 Fair CLR 23.3 12.8 52% 75.97 1012.9
01 17:53 SW 13 16.09 Fair CLR 25 12.2 45% 26 76 1013.1
01 16:53 SW 13 16.09 Fair CLR 24.4 12.8 25 21.7 48% 26 76.02 1013.5
01 15:53 SW 13 16.09 Fair CLR 23.9 13.3 52% 25 76.07 1014.3
01 14:53 SW 15 16.09 Fair CLR 23.9 12.8 50% 25 76.12 1014.8
01 13:53 SW 13 16.09 Fair CLR 22.8 13.9 57% 76.15 1015.2
01 12:53 SW 15 16.09 Fair CLR 22.8 14.4 59% 76.17 1015.5
01 11:53 SW 13 16.09 Fair CLR 22.2 14.4 61% 76.23 1016.1
01 10:53 SW 13 16.09 Fair CLR 21.7 14.4 22.2 12.2 63% 76.2 1015.9
01 09:53 SE 9 16.09 Fair CLR 21.1 14.4 66% 76.17 1015.4
01 08:53 NE 9 16.09 A Few Clouds FEW017 20.6 11.1 55% 76.15 1015.1
01 07:53 Calm 16.09 A Few Clouds FEW017 17.2 12.2 73% 76.12 1014.9
01 06:53 Calm 16.09 A Few Clouds FEW010 12.8 10.6 87% 76.07 1014.1
01 05:53 Calm 16.09 A Few Clouds FEW007 12.8 10.6 87% 76.07 1014.0
01 04:53 Calm 16.09 Fair CLR 13.9 11.1 16.7 13.3 83% 76.05 1013.6
01 03:53 NE 9 16.09 Fair CLR 15.6 11.7 78% 76.05 1013.7
01 02:53 N 7 16.09 Fair CLR 13.9 11.1 83% 76.05 1013.7
01 01:53 NW 6 16.09 Fair CLR 13.9 10.6 81% 76.02 1013.6
01 00:53 Calm 16.09 Fair CLR 15.6 12.8 84% 76.02 1013.6
31 23:53 NE 7 16.09 Fair CLR 16.1 12.2 78% 76.02 1013.5
31 22:53 NE 9 16.09 Fair CLR 16.7 13.3 22.8 15.6 80% 76 1013.1
31 21:53 Calm 16.09 Fair CLR 16.7 13.9 84% 75.97 1013.0
31 20:53 NE 7 16.09 Fair CLR 18.3 15 81% 75.97 1012.9
31 18:53 S 6 16.09 Fair CLR 20.6 13.9 66% 75.95 1012.3
31 17:53 Vrbl 9 16.09 Fair CLR 21.7 14.4 63% 75.92 1012.2
31 16:53 SW 13 16.09 Fair CLR 22.2 14.4 24.4 21.1 61% 75.95 1012.5
31 15:53 SW 13 16.09 Fair CLR 23.3 15.6 62% 75.97 1012.7
31 13:53 SW 15 16.09 Fair CLR 22.8 16.7 69% 76.02 1013.6
31 12:53 S 11 16.09 Fair CLR 23.9 15.6 60% 25 76.05 1013.7
31 11:53 S 13 14.48 Fair CLR 22.2 16.1 68% 76.07 1014.1
31 10:53 Vrbl 9 12.87 Fair CLR 21.7 16.7 22.2 16.7 73% 76.07 1014.3
31 09:53 Vrbl 9 12.87 Fair CLR 21.7 16.7 73% 76.05 1013.7
31 08:53 E 17 12.87 Fair CLR 21.1 16.7 76% 76 1013.1
31 07:53 E 17 11.27 Fair CLR 19.4 16.1 81% 76 1013.2
31 06:53 E 15 11.27 Fair CLR 17.8 15.6 87% 75.92 1012.0
31 05:53 N 11 12.87 Fair CLR 16.7 15 90% 75.9 1011.8
31 04:53 E 9 12.87 Fair CLR 18.3 16.1 20.6 17.8 87% 75.87 1011.6
31 03:53 E 11 12.87 Fair CLR 18.3 16.1 87% 75.87 1011.5
31 02:53 E 7 12.87 Fair CLR 18.9 16.1 84% 75.87 1011.3
31 01:53 NE 7 14.48 Fair CLR 18.3 16.1 87% 75.84 1011.2
31 00:53 Calm 14.48 Fair CLR 19.4 16.7 84% 75.87 1011.3
30 23:53 Calm 14.48 Fair CLR 19.4 16.7 84% 75.84 1010.9
30 22:53 E 7 12.87 Fair CLR 20.6 17.2 26.7 20.6 81% 75.82 1010.8
30 21:53 SE 15 12.87 Fair CLR 21.7 18.3 81% 75.82 1010.7
30 20:53 SE 7 16.09 Fair CLR 21.7 15 66% 75.77 1010.1
30 19:53 SE 6 12.87 Fair CLR 22.2 16.7 71% 75.72 1009.4
30 18:53 Calm 14.48 Fair CLR 23.3 16.1 64% 75.74 1009.6
30 17:53 W 11 14.48 Fair CLR 24.4 16.7 62% 25 75.74 1009.8
30 16:53 W 13 16.09 Fair CLR 26.7 16.7 27.8 23.3 54% 27 75.77 1010.2
30 15:53 SW 11 16.09 Fair with Haze CLR 27.2 15.6 49% 28 75.82 1010.6
30 14:53 SW 13 16.09 Fair with Haze CLR 27.2 15 47% 27 75.84 1011.2
30 13:53 Calm 16.09 Fair with Haze CLR 26.1 15 50% 27 75.92 1012.2
30 12:53 Vrbl 7 16.09 Fair with Haze CLR 26.1 16.1 54% 27 75.92 1012.2
30 11:53 S 9 12.87 Fair with Haze CLR 23.9 17.8 69% 25 75.95 1012.6
30 10:53 SE 19 12.87 A Few Clouds with Haze FEW080 23.3 17.8 25 16.1 71% 75.95 1012.6
Date Time (pdt) Wind (kph) Vis. (km) Weather Sky Cond. Air Dwpt Max. Min. Relative Humidity Wind Chill (°C) Heat Index (°C) altimeter (cm) sea level (mb) 1 hr 3 hr 6 hr
6 hour
Temperature (ºC) Pressure Precipitation (cm)